createdAt,value
2017-12-31T00:19:09.238Z,2.07
2017-12-31T00:21:38.582Z,1.63
2017-12-31T00:24:06.067Z,1.30
2017-12-31T00:26:33.573Z,1.07
2017-12-31T00:29:01.026Z,1.07
2017-12-31T00:31:28.492Z,2.17
2017-12-31T00:33:55.958Z,1.17
2017-12-31T00:36:23.420Z,1.20
2017-12-31T00:38:50.887Z,1.00
2017-12-31T00:41:18.426Z,0.90
2017-12-31T00:43:46.052Z,1.13
2017-12-31T00:46:13.489Z,1.10
2017-12-31T00:48:42.685Z,0.87
2017-12-31T00:51:10.161Z,1.00
2017-12-31T00:53:37.622Z,0.80
2017-12-31T00:56:05.098Z,0.80
2017-12-31T00:58:32.569Z,0.73
2017-12-31T01:01:00.029Z,0.90
2017-12-31T01:03:27.490Z,0.93
2017-12-31T01:05:54.945Z,1.00
2017-12-31T01:08:22.413Z,1.80
2017-12-31T01:10:49.873Z,1.93
2017-12-31T01:13:17.313Z,2.07
2017-12-31T01:15:44.779Z,2.60
2017-12-31T01:18:12.257Z,2.97
2017-12-31T01:20:39.702Z,2.50
2017-12-31T01:23:07.986Z,3.67
2017-12-31T01:25:35.462Z,4.53
2017-12-31T01:28:02.919Z,3.53
2017-12-31T01:30:30.357Z,4.60
2017-12-31T01:32:58.593Z,3.73
2017-12-31T01:35:26.058Z,2.97
2017-12-31T01:37:53.514Z,2.80
2017-12-31T01:40:21.002Z,3.97
2017-12-31T01:42:48.467Z,3.73
2017-12-31T01:45:16.920Z,2.30
2017-12-31T01:47:44.449Z,2.57
2017-12-31T01:50:12.175Z,3.00
2017-12-31T01:52:46.252Z,2.17
2017-12-31T01:55:13.717Z,2.53
2017-12-31T01:57:48.232Z,2.20
2017-12-31T02:00:15.728Z,2.23
2017-12-31T02:02:43.978Z,2.13
2017-12-31T02:05:11.449Z,1.87
2017-12-31T02:07:39.690Z,1.30
2017-12-31T02:10:07.195Z,1.47
2017-12-31T02:12:35.407Z,1.40
2017-12-31T02:15:02.888Z,1.30
2017-12-31T02:17:30.358Z,1.80
2017-12-31T02:19:57.834Z,1.47
2017-12-31T02:22:25.307Z,1.97
2017-12-31T02:24:52.760Z,1.50
2017-12-31T02:27:20.238Z,1.30
2017-12-31T02:29:47.709Z,1.20
2017-12-31T02:32:15.230Z,1.80
2017-12-31T02:34:42.681Z,1.10
2017-12-31T02:37:10.150Z,1.17
2017-12-31T02:39:37.601Z,0.97
2017-12-31T02:42:05.048Z,1.13
2017-12-31T02:44:32.519Z,1.17
2017-12-31T02:46:59.979Z,1.30
2017-12-31T02:49:27.449Z,1.03
2017-12-31T02:51:54.929Z,1.30
2017-12-31T02:54:22.390Z,1.20
2017-12-31T02:56:49.862Z,1.40
2017-12-31T02:59:17.326Z,1.63
2017-12-31T03:01:44.810Z,2.27
2017-12-31T03:04:13.044Z,2.80
2017-12-31T03:06:40.523Z,2.27
2017-12-31T03:09:07.992Z,3.97
2017-12-31T03:11:36.228Z,2.50
2017-12-31T03:14:03.739Z,3.20
2017-12-31T03:16:31.969Z,2.17
2017-12-31T03:18:59.431Z,2.10
2017-12-31T03:21:26.898Z,2.10
2017-12-31T03:23:54.375Z,2.40
2017-12-31T03:26:22.601Z,2.27
2017-12-31T03:28:50.359Z,1.90
2017-12-31T03:31:17.845Z,2.80
2017-12-31T03:33:45.309Z,2.93
2017-12-31T03:36:12.789Z,3.33
2017-12-31T03:38:41.028Z,3.10
2017-12-31T03:41:08.490Z,3.17
2017-12-31T03:43:35.969Z,3.10
2017-12-31T03:46:03.448Z,3.17
2017-12-31T03:48:30.985Z,2.93
2017-12-31T03:50:58.438Z,3.20
2017-12-31T03:53:26.662Z,3.40
2017-12-31T03:55:54.127Z,3.10
2017-12-31T03:58:21.592Z,2.83
2017-12-31T04:00:49.083Z,3.43
2017-12-31T04:03:16.550Z,3.03
2017-12-31T04:05:44.793Z,3.30
2017-12-31T04:08:12.260Z,3.00
2017-12-31T04:10:39.771Z,2.90
2017-12-31T04:13:07.248Z,3.07
2017-12-31T04:15:34.710Z,2.60
2017-12-31T04:18:02.183Z,3.37
2017-12-31T04:20:29.693Z,3.33
2017-12-31T04:22:57.173Z,2.90
2017-12-31T04:25:24.641Z,5.10
2017-12-31T04:27:52.120Z,2.93
2017-12-31T04:30:19.601Z,2.80
2017-12-31T04:32:47.838Z,3.10
2017-12-31T04:35:15.314Z,3.17
2017-12-31T04:37:42.804Z,2.80
2017-12-31T04:40:10.278Z,2.70
2017-12-31T04:42:37.741Z,2.57
2017-12-31T04:45:05.201Z,3.60
2017-12-31T04:47:32.653Z,3.80
2017-12-31T04:50:00.889Z,3.20
2017-12-31T04:52:29.107Z,3.83
2017-12-31T04:54:56.596Z,2.57
2017-12-31T04:57:24.060Z,3.70
2017-12-31T04:59:51.548Z,1.93
2017-12-31T05:02:19.813Z,2.60
2017-12-31T05:04:48.049Z,2.03
2017-12-31T05:07:15.522Z,1.83
2017-12-31T05:09:44.603Z,2.93
2017-12-31T05:12:12.079Z,2.10
2017-12-31T05:14:39.542Z,2.50
2017-12-31T05:17:07.016Z,2.90
2017-12-31T05:19:35.256Z,2.70
2017-12-31T05:22:02.714Z,3.00
2017-12-31T05:24:30.175Z,2.17
2017-12-31T05:26:57.652Z,2.67
2017-12-31T05:29:25.126Z,2.33
2017-12-31T05:31:53.332Z,2.10
2017-12-31T05:34:20.825Z,1.80
2017-12-31T05:36:48.292Z,2.17
2017-12-31T05:39:15.753Z,1.80
2017-12-31T05:41:43.201Z,2.00
2017-12-31T05:44:10.692Z,1.80
2017-12-31T05:46:38.179Z,2.47
2017-12-31T05:49:05.612Z,2.07
2017-12-31T05:51:33.113Z,1.97
2017-12-31T05:54:00.560Z,2.87
2017-12-31T05:56:28.047Z,5.83
2017-12-31T05:58:55.532Z,1.63
2017-12-31T06:01:23.770Z,2.50
2017-12-31T06:03:51.209Z,2.30
2017-12-31T06:06:18.720Z,2.97
2017-12-31T06:08:46.194Z,1.77
2017-12-31T06:11:13.644Z,2.50
2017-12-31T06:13:41.116Z,1.70
2017-12-31T06:16:08.581Z,2.63
2017-12-31T06:18:36.839Z,2.20
2017-12-31T06:21:04.309Z,1.90
2017-12-31T06:23:31.773Z,1.80
2017-12-31T06:25:59.241Z,2.73
2017-12-31T06:28:26.716Z,2.10
2017-12-31T06:30:54.181Z,1.77
2017-12-31T06:33:21.659Z,2.00
2017-12-31T06:35:49.946Z,2.27
2017-12-31T06:38:17.463Z,2.03
2017-12-31T06:40:44.916Z,1.97
2017-12-31T06:43:12.397Z,1.80
2017-12-31T06:45:39.855Z,1.90
2017-12-31T06:48:07.315Z,2.53
2017-12-31T06:50:34.791Z,1.87
2017-12-31T06:53:02.998Z,1.87
2017-12-31T06:55:30.479Z,2.27
2017-12-31T06:57:57.953Z,1.60
2017-12-31T07:00:25.446Z,2.23
2017-12-31T07:02:52.903Z,1.50
2017-12-31T07:05:20.372Z,1.87
2017-12-31T07:07:47.836Z,2.00
2017-12-31T07:10:15.314Z,2.03
2017-12-31T07:12:42.797Z,2.80
2017-12-31T07:15:10.242Z,2.00
2017-12-31T07:17:37.744Z,2.40
2017-12-31T07:20:05.241Z,2.40
2017-12-31T07:22:32.686Z,2.53
2017-12-31T07:25:00.151Z,2.03
2017-12-31T07:27:27.627Z,1.73
2017-12-31T07:29:55.089Z,2.00
2017-12-31T07:32:22.577Z,2.03
2017-12-31T07:34:50.829Z,2.13
2017-12-31T07:37:18.277Z,2.00
2017-12-31T07:39:45.730Z,1.97
2017-12-31T07:42:13.200Z,1.77
2017-12-31T07:44:40.661Z,2.40
2017-12-31T07:47:08.136Z,3.00
2017-12-31T07:49:36.382Z,3.03
2017-12-31T07:52:03.838Z,2.27
2017-12-31T07:54:31.310Z,2.50
2017-12-31T07:56:58.797Z,1.93
2017-12-31T07:59:26.265Z,2.63
2017-12-31T08:01:53.753Z,2.33
2017-12-31T08:04:21.233Z,2.63
2017-12-31T08:06:48.683Z,2.10
2017-12-31T08:09:16.171Z,2.07
2017-12-31T08:11:43.660Z,2.03
2017-12-31T08:14:11.113Z,2.73
2017-12-31T08:16:38.580Z,1.50
2017-12-31T08:19:06.137Z,2.40
2017-12-31T08:21:33.630Z,2.90
2017-12-31T08:24:01.090Z,2.90
2017-12-31T08:26:28.564Z,2.60
2017-12-31T08:28:56.016Z,1.97
2017-12-31T08:31:23.493Z,1.70
2017-12-31T08:33:51.773Z,1.93
2017-12-31T08:36:19.552Z,2.30
2017-12-31T08:38:47.094Z,2.33
2017-12-31T08:41:15.430Z,2.07
2017-12-31T08:43:42.877Z,2.63
2017-12-31T08:46:10.368Z,2.03
2017-12-31T08:48:37.861Z,1.90
2017-12-31T08:51:05.404Z,2.60
2017-12-31T08:53:32.921Z,1.83
2017-12-31T08:56:00.414Z,2.60
2017-12-31T08:58:28.688Z,2.20
2017-12-31T09:00:56.921Z,1.73
2017-12-31T09:03:24.399Z,2.00
2017-12-31T09:05:51.887Z,2.70
2017-12-31T09:08:20.113Z,2.17
2017-12-31T09:10:47.585Z,2.40
2017-12-31T09:13:15.128Z,2.10
2017-12-31T09:15:43.449Z,2.53
2017-12-31T09:18:11.697Z,3.20
2017-12-31T09:20:39.211Z,2.23
2017-12-31T09:23:06.746Z,2.40
2017-12-31T09:25:34.983Z,2.23
2017-12-31T09:28:02.448Z,2.20
2017-12-31T09:30:29.913Z,2.17
2017-12-31T09:32:57.580Z,1.60
2017-12-31T09:35:25.044Z,2.40
2017-12-31T09:37:53.334Z,2.40
2017-12-31T09:40:21.598Z,3.00
2017-12-31T09:42:49.809Z,2.20
2017-12-31T09:45:17.340Z,2.63
2017-12-31T09:47:45.574Z,2.20
2017-12-31T09:50:13.071Z,2.90
2017-12-31T09:52:41.343Z,2.93
2017-12-31T09:55:09.593Z,2.87
2017-12-31T09:57:37.078Z,2.53
2017-12-31T10:00:05.331Z,2.90
2017-12-31T10:02:32.867Z,2.83
2017-12-31T10:05:00.321Z,3.70
2017-12-31T10:07:27.782Z,2.43
2017-12-31T10:09:55.322Z,2.13
2017-12-31T10:12:23.011Z,2.43
2017-12-31T10:14:50.585Z,1.90
2017-12-31T10:17:18.036Z,2.60
2017-12-31T10:19:45.488Z,2.13
2017-12-31T10:22:12.991Z,2.27
2017-12-31T10:24:40.482Z,1.37
2017-12-31T10:27:08.009Z,2.03
2017-12-31T10:29:35.472Z,1.63
2017-12-31T10:32:02.949Z,2.00
2017-12-31T10:34:30.437Z,2.10
2017-12-31T10:36:57.895Z,2.13
2017-12-31T10:39:25.443Z,2.83
2017-12-31T10:41:52.909Z,2.37
2017-12-31T10:44:20.384Z,1.63
2017-12-31T10:46:47.854Z,2.17
2017-12-31T10:49:16.082Z,2.30
2017-12-31T10:51:43.588Z,2.00
2017-12-31T10:54:11.826Z,1.70
2017-12-31T10:56:39.450Z,2.40
2017-12-31T10:59:07.047Z,2.17
2017-12-31T11:01:34.510Z,2.30
2017-12-31T11:04:02.145Z,1.67
2017-12-31T11:06:29.665Z,1.70
2017-12-31T11:08:57.901Z,2.50
2017-12-31T11:11:25.383Z,2.00
2017-12-31T11:13:52.843Z,2.17
2017-12-31T11:16:20.368Z,2.70
2017-12-31T11:18:47.844Z,2.07
2017-12-31T11:21:15.317Z,4.77
2017-12-31T11:23:43.577Z,2.07
2017-12-31T11:26:11.056Z,2.03
2017-12-31T11:28:38.637Z,1.90
2017-12-31T11:31:06.115Z,2.13
2017-12-31T11:33:33.614Z,2.50
2017-12-31T11:36:01.461Z,2.50
2017-12-31T11:38:29.063Z,2.50
2017-12-31T11:40:57.310Z,2.10
2017-12-31T11:43:24.900Z,2.27
2017-12-31T11:45:52.406Z,1.90
2017-12-31T11:48:19.939Z,1.90
2017-12-31T11:50:47.684Z,2.20
2017-12-31T11:53:15.145Z,2.60
2017-12-31T11:55:42.658Z,4.10
2017-12-31T11:58:10.183Z,2.83
2017-12-31T12:00:38.447Z,2.70
2017-12-31T12:03:05.910Z,3.70
2017-12-31T12:05:33.401Z,4.07
2017-12-31T12:08:00.877Z,2.67
2017-12-31T12:10:28.338Z,3.50
2017-12-31T12:12:55.820Z,2.53
2017-12-31T12:15:24.066Z,2.13
2017-12-31T12:17:51.622Z,2.70
2017-12-31T12:20:19.095Z,2.67
2017-12-31T12:22:46.574Z,2.80
2017-12-31T12:25:14.055Z,2.30
2017-12-31T12:27:41.510Z,2.40
2017-12-31T12:30:09.066Z,2.40
2017-12-31T12:32:36.545Z,1.97
2017-12-31T12:35:04.027Z,2.10
2017-12-31T12:37:31.523Z,1.80
2017-12-31T12:39:59.011Z,2.40
2017-12-31T12:42:26.529Z,2.63
2017-12-31T12:44:54.769Z,2.87
2017-12-31T12:47:22.274Z,1.73
2017-12-31T12:49:50.523Z,1.43
2017-12-31T12:52:18.021Z,2.47
2017-12-31T12:54:45.500Z,2.50
2017-12-31T12:57:13.104Z,2.30
2017-12-31T12:59:40.564Z,2.43
2017-12-31T13:02:08.819Z,2.40
2017-12-31T13:04:36.268Z,2.10
2017-12-31T13:07:03.756Z,2.10
2017-12-31T13:09:31.281Z,1.70
2017-12-31T13:11:59.532Z,1.90
2017-12-31T13:14:27.045Z,1.60
2017-12-31T13:16:54.542Z,2.50
2017-12-31T13:19:22.000Z,2.60
2017-12-31T13:21:49.508Z,1.57
2017-12-31T13:24:16.965Z,2.00
2017-12-31T13:26:44.438Z,2.20
2017-12-31T13:29:12.674Z,1.57
2017-12-31T13:31:40.462Z,1.27
2017-12-31T13:34:07.934Z,1.77
2017-12-31T13:36:35.421Z,1.70
2017-12-31T13:39:02.916Z,1.53
2017-12-31T13:41:30.403Z,2.07
2017-12-31T13:43:58.642Z,1.80
2017-12-31T13:46:26.111Z,1.50
2017-12-31T13:48:53.583Z,2.23
2017-12-31T13:51:21.054Z,1.70
2017-12-31T13:53:49.417Z,1.60
2017-12-31T13:56:16.954Z,2.23
2017-12-31T13:58:44.420Z,1.80
2017-12-31T14:01:11.904Z,1.53
2017-12-31T14:03:40.186Z,2.13
2017-12-31T14:06:08.427Z,2.03
2017-12-31T14:08:35.883Z,2.20
2017-12-31T14:11:03.372Z,2.17
2017-12-31T14:13:31.617Z,2.73
2017-12-31T14:15:59.227Z,3.07
2017-12-31T14:18:26.680Z,2.37
2017-12-31T14:20:54.152Z,1.83
2017-12-31T14:23:21.666Z,2.50
2017-12-31T14:25:49.148Z,2.20
2017-12-31T14:28:17.413Z,1.80
2017-12-31T14:30:44.878Z,2.00
2017-12-31T14:33:13.123Z,2.20
2017-12-31T14:35:40.602Z,2.67
2017-12-31T14:38:08.827Z,2.53
2017-12-31T14:40:36.364Z,2.23
2017-12-31T14:43:03.882Z,1.90
2017-12-31T14:45:31.461Z,2.57
2017-12-31T14:47:59.750Z,1.80
2017-12-31T14:50:28.026Z,1.70
2017-12-31T14:52:55.673Z,2.00
2017-12-31T14:55:23.903Z,1.90
2017-12-31T14:57:51.445Z,1.83
2017-12-31T15:00:18.922Z,3.60
2017-12-31T15:02:46.424Z,2.00
2017-12-31T15:05:14.737Z,2.07
2017-12-31T15:07:42.204Z,2.40
2017-12-31T15:10:09.682Z,2.90
2017-12-31T15:12:37.174Z,2.50
2017-12-31T15:15:05.394Z,3.30
2017-12-31T15:17:33.615Z,1.97
2017-12-31T15:20:04.234Z,4.90
2017-12-31T15:22:31.707Z,4.70
2017-12-31T15:24:59.968Z,2.20
2017-12-31T15:27:27.453Z,3.43
2017-12-31T15:29:55.737Z,6.77
2017-12-31T15:32:23.395Z,3.07
2017-12-31T15:34:50.898Z,2.63
2017-12-31T15:37:19.076Z,2.17
2017-12-31T15:39:46.537Z,2.77
2017-12-31T15:42:14.018Z,2.03
2017-12-31T15:44:41.481Z,2.10
2017-12-31T15:47:09.814Z,2.20
2017-12-31T15:49:38.504Z,1.90
2017-12-31T15:52:07.003Z,2.13
2017-12-31T15:54:34.926Z,2.10
2017-12-31T15:57:02.430Z,2.13
2017-12-31T15:59:31.842Z,1.80
2017-12-31T16:01:59.570Z,2.60
2017-12-31T16:04:27.075Z,1.87
2017-12-31T16:06:54.603Z,2.37
2017-12-31T16:09:22.082Z,2.47
2017-12-31T16:11:50.311Z,2.17
2017-12-31T16:14:17.820Z,2.47
2017-12-31T16:16:45.274Z,2.50
2017-12-31T16:19:12.735Z,2.10
2017-12-31T16:21:40.291Z,3.80
2017-12-31T16:24:07.769Z,1.97
2017-12-31T16:26:36.006Z,1.70
2017-12-31T16:29:03.466Z,2.20
2017-12-31T16:31:30.943Z,2.20
2017-12-31T16:33:59.542Z,2.43
2017-12-31T16:36:27.007Z,1.93
2017-12-31T16:38:55.449Z,1.93
2017-12-31T16:41:24.997Z,2.40
2017-12-31T16:43:54.607Z,1.60
2017-12-31T16:46:22.153Z,2.30
2017-12-31T16:48:49.621Z,2.00
2017-12-31T16:51:17.124Z,1.70
2017-12-31T16:53:44.614Z,2.10
2017-12-31T16:56:12.082Z,1.60
2017-12-31T16:58:40.038Z,1.60
2017-12-31T17:01:07.488Z,2.03
2017-12-31T17:03:34.967Z,2.20
2017-12-31T17:06:02.495Z,1.40
2017-12-31T17:08:30.001Z,1.97
2017-12-31T17:10:57.472Z,2.40
2017-12-31T17:13:24.958Z,2.40
2017-12-31T17:15:52.443Z,1.87
2017-12-31T17:18:19.934Z,1.50
2017-12-31T17:20:47.410Z,1.47
2017-12-31T17:23:14.883Z,2.17
2017-12-31T17:25:42.548Z,2.30
2017-12-31T17:28:10.013Z,2.10
2017-12-31T17:30:37.483Z,2.43
2017-12-31T17:33:04.943Z,2.77
2017-12-31T17:35:32.418Z,2.17
2017-12-31T17:38:00.689Z,1.90
2017-12-31T17:40:28.945Z,2.60
2017-12-31T17:42:56.421Z,2.50
2017-12-31T17:45:24.677Z,1.90
2017-12-31T17:47:52.155Z,2.13
2017-12-31T17:50:20.406Z,2.27
2017-12-31T17:52:47.860Z,2.10
2017-12-31T17:55:15.323Z,2.43
2017-12-31T17:57:42.780Z,2.33
2017-12-31T18:00:10.284Z,1.60
2017-12-31T18:02:37.754Z,2.20
2017-12-31T18:05:05.237Z,2.47
2017-12-31T18:07:32.706Z,4.07
2017-12-31T18:10:00.161Z,4.97
2017-12-31T18:12:27.647Z,2.13
2017-12-31T18:14:55.107Z,3.23
2017-12-31T18:17:22.586Z,5.30
2017-12-31T18:19:50.065Z,2.33
2017-12-31T18:22:17.523Z,2.70
2017-12-31T18:24:44.987Z,2.90
2017-12-31T18:27:12.475Z,3.77
2017-12-31T18:29:39.946Z,2.63
2017-12-31T18:32:08.202Z,2.00
2017-12-31T18:34:35.688Z,2.27
2017-12-31T18:37:03.922Z,2.27
2017-12-31T18:39:31.380Z,1.80
2017-12-31T18:41:58.841Z,2.10
2017-12-31T18:44:26.298Z,1.57
2017-12-31T18:46:53.750Z,2.53
2017-12-31T18:49:21.221Z,2.40
2017-12-31T18:51:48.681Z,2.27
2017-12-31T18:54:16.141Z,1.80
2017-12-31T18:56:44.391Z,2.13
2017-12-31T18:59:11.860Z,1.83
2017-12-31T19:01:39.340Z,2.50
2017-12-31T19:04:06.832Z,2.40
2017-12-31T19:06:34.305Z,2.10
2017-12-31T19:09:01.791Z,2.20
2017-12-31T19:11:29.256Z,2.10
2017-12-31T19:13:56.746Z,2.23
2017-12-31T19:16:24.965Z,2.23
2017-12-31T19:18:52.444Z,2.50
2017-12-31T19:21:19.953Z,2.13
2017-12-31T19:23:47.499Z,2.03
2017-12-31T19:26:15.247Z,2.20
2017-12-31T19:28:42.763Z,2.10
2017-12-31T19:31:10.231Z,2.23
2017-12-31T19:33:37.701Z,2.20
2017-12-31T19:36:05.190Z,2.17
2017-12-31T19:38:32.659Z,2.50
2017-12-31T19:41:00.193Z,2.00
2017-12-31T19:43:27.681Z,2.20
2017-12-31T19:45:55.146Z,2.10
2017-12-31T19:48:22.594Z,1.97
2017-12-31T19:50:50.821Z,1.90
2017-12-31T19:53:18.329Z,2.30
2017-12-31T19:55:45.848Z,2.40
2017-12-31T19:58:13.316Z,3.07
2017-12-31T20:00:41.553Z,2.30
2017-12-31T20:03:09.054Z,2.97
2017-12-31T20:05:37.324Z,2.50
2017-12-31T20:08:04.801Z,2.63
2017-12-31T20:10:32.439Z,1.90
2017-12-31T20:13:00.658Z,2.10
2017-12-31T20:15:28.142Z,1.93
2017-12-31T20:17:55.607Z,2.00
2017-12-31T20:20:23.076Z,1.80
2017-12-31T20:22:50.574Z,2.03
2017-12-31T20:25:18.020Z,1.87
2017-12-31T20:27:45.566Z,1.77
2017-12-31T20:30:13.794Z,2.20
2017-12-31T20:32:41.293Z,2.00
2017-12-31T20:35:08.844Z,2.20
2017-12-31T20:37:36.575Z,2.20
2017-12-31T20:40:04.078Z,2.50
2017-12-31T20:42:31.542Z,2.60
2017-12-31T20:44:59.043Z,1.80
2017-12-31T20:47:26.588Z,1.60
2017-12-31T20:49:54.046Z,2.13
2017-12-31T20:52:21.582Z,2.50
2017-12-31T20:54:49.037Z,2.00
2017-12-31T20:57:16.506Z,2.13
2017-12-31T20:59:43.967Z,1.83
2017-12-31T21:02:11.441Z,2.00
2017-12-31T21:04:38.933Z,2.20
2017-12-31T21:07:06.458Z,2.50
2017-12-31T21:09:33.886Z,1.90
2017-12-31T21:12:01.388Z,2.20
2017-12-31T21:14:29.759Z,5.97
2017-12-31T21:16:57.246Z,2.10
2017-12-31T21:19:24.704Z,2.10
2017-12-31T21:21:52.161Z,2.43
2017-12-31T21:24:20.405Z,2.20
2017-12-31T21:26:47.945Z,2.43
2017-12-31T21:29:15.456Z,2.93
2017-12-31T21:31:42.986Z,2.30
2017-12-31T21:34:10.467Z,2.47
2017-12-31T21:36:37.917Z,3.80
2017-12-31T21:39:05.373Z,2.43
2017-12-31T21:41:32.875Z,5.20
2017-12-31T21:44:00.349Z,2.40
2017-12-31T21:46:27.911Z,2.90
2017-12-31T21:48:56.167Z,2.43
2017-12-31T21:51:23.651Z,2.30
2017-12-31T21:53:51.401Z,1.80
2017-12-31T21:56:18.874Z,2.43
2017-12-31T21:58:46.360Z,2.07
2017-12-31T22:01:13.905Z,1.97
2017-12-31T22:03:42.232Z,2.60
2017-12-31T22:06:10.575Z,2.07
2017-12-31T22:08:38.053Z,1.73
2017-12-31T22:11:07.522Z,1.70
2017-12-31T22:13:35.023Z,1.73
2017-12-31T22:16:02.481Z,1.93
2017-12-31T22:18:30.282Z,1.70
2017-12-31T22:20:57.817Z,1.80
2017-12-31T22:23:26.840Z,1.57
2017-12-31T22:25:54.343Z,1.60
2017-12-31T22:28:21.868Z,2.40
2017-12-31T22:30:49.371Z,1.60
2017-12-31T22:33:16.849Z,1.73
2017-12-31T22:35:45.382Z,1.30
2017-12-31T22:38:12.877Z,1.40
2017-12-31T22:40:40.364Z,1.00
2017-12-31T22:43:07.845Z,1.10
2017-12-31T22:45:35.301Z,1.60
2017-12-31T22:48:02.775Z,1.00
2017-12-31T22:50:30.222Z,1.00
2017-12-31T22:52:57.669Z,0.93
2017-12-31T22:55:26.044Z,1.10
2017-12-31T22:57:53.574Z,1.43
2017-12-31T23:00:21.212Z,39.63
2017-12-31T23:02:54.404Z,36.20
2017-12-31T23:05:22.127Z,33.40
2017-12-31T23:07:49.655Z,98.40
2017-12-31T23:10:17.438Z,88.20
2017-12-31T23:12:44.947Z,67.10
2017-12-31T23:15:13.194Z,9.77
2017-12-31T23:17:41.451Z,15.40
2017-12-31T23:20:09.193Z,6.03
2017-12-31T23:22:36.690Z,8.43
2017-12-31T23:25:04.216Z,10.40
2017-12-31T23:27:31.716Z,6.83
2017-12-31T23:30:00.009Z,10.47
2017-12-31T23:32:28.252Z,7.63
2017-12-31T23:34:55.775Z,6.83
2017-12-31T23:37:24.016Z,6.80
2017-12-31T23:39:51.516Z,6.97
2017-12-31T23:42:19.031Z,10.00
2017-12-31T23:44:46.493Z,2.47
2017-12-31T23:47:14.059Z,2.70
2017-12-31T23:49:42.384Z,8.23
2017-12-31T23:52:09.853Z,3.90
2017-12-31T23:54:37.322Z,2.10
2017-12-31T23:57:05.575Z,2.43
2017-12-31T23:59:33.053Z,1.83
